Skip Navigation Links
NOAA logo - Click to go to the NOAA homepage
NOAA's National Weather Service
Alaska Aviation Weather Unit
  NWS logo - Click to go to the NWS homepage
Left Navbar Graphic     23 AKDT = 07 GMT

   
NOAA is celebrating 200 years of science, service, and stewardship. Visit the NOAA 200th celebration Web site to learn more.
USA.gov is the U.S. Government's official Web portal to all Federal, state and local government Web resources and services.
Facebook
NWS on Facebook

Important Change Regarding the AAWU Web Presence

 

Over the last several months, the AAWU has been working to navigate its webpages to a nationally supported server. Security, as well as other needs, have necessitated the change.  In the process, we have made an effort to enhance the functionality of our website, as well as some of our products. As of June 20, 2017, aawu.arh.noaa.gov will be discontinued. The new AAWU web address is weather.gov/aawu. It is now live and will run in-parallel with the old site until it is discontinued. Please send any feedback or questions regarding the new webpages to nws.ar.aawu.webauthors@noaa.gov.  Thank you for your patience during this time of transition.
AAWU Home :: Display TAF Add Bookmark
SPECI PASM 240128Z AUTO 16008KT 10SM -RA SCT014 BKN023 OVC031 06/03
     A2979 RMK AO2 P0001=

METAR PASM 240156Z AUTO 16009KT 10SM -RA FEW009 BKN025 OVC032 06/04
     A2978 RMK AO2 SLP103 P0002 T00560044=

SPECI PASM 240208Z AUTO 17008G15KT 8SM -RA FEW009 BKN014 BKN025 06/04
     A2978 RMK AO2 P0001=

SPECI PASM 240254Z AUTO 15010KT 10SM -RA FEW010 BKN022 OVC029 06/03
 A2976 RMK AO2 P0003=

METAR PASM 240256Z AUTO 16010KT 10SM -RA FEW010 BKN022 OVC029 06/03
     A2976 RMK AO2 SLP096 P0003 60005 T00560033 56008=

METAR PASM 240356Z AUTO 15007KT 7SM -RA SCT010 BKN016 OVC028 05/04 A2974
     RMK AO2 SLP088 P0003 T00500039=

SPECI PASM 240408Z AUTO 16010G14KT 6SM -RA BR FEW009 BKN014 OVC026 05/04
     A2973 RMK AO2 P0001=

SPECI PASM 240423Z AUTO 14006KT 8SM -RA FEW011 BKN017 OVC026 05/04 A2973
     RMK AO2 P0002=

SPECI PASM 240432Z AUTO 14007KT 10SM -RA SCT009 BKN015 OVC026 05/04
     A2972 RMK AO2 P0003=

METAR PASM 240456Z AUTO 14007KT 10SM -RA BKN013 OVC021 05/04 A2971
 RMK AO2 SLP078 P0004 T00500039=

SPECI PASM 240503Z AUTO 14007KT 10SM -RA FEW011 BKN017 OVC027 05/04
     A2971 RMK AO2 P0001=

SPECI PASM 240521Z AUTO 15005KT 10SM -RA BKN012 BKN017 OVC027 04/04
     A2970 RMK AO2 P0002=

SPECI PASM 240542Z AUTO 15006KT 10SM -RA BKN009 BKN012 OVC027 04/04
     A2969 RMK AO2 CIG 008V011 P0004=

METAR PASM 240556Z AUTO 15009KT 10SM -RA BKN009 BKN016 OVC027 04/04
     A2969 RMK AO2 CIG 007V012 SLP071 P0005 60017 T00440039 10094
     20044 58025=

SPECI PASM 240640Z AUTO 15007G14KT 10SM -RA SCT011 BKN016 OVC030
 04/03 A2968 RMK AO2 P0002=

SPECI PASM 240646Z AUTO 15007KT 10SM -RA FEW008 BKN013 OVC030 04/03
     A2968 RMK AO2 P0002=

METAR PASM 240656Z AUTO 15008KT 10SM -RA FEW009 BKN013 OVC030 04/03
     A2967 RMK AO2 SLP065 P0003 T00440033=

SPECI PASM 240711Z AUTO 15008KT 10SM -RA SCT009 BKN015 OVC030 04/03
     A2967 RMK AO2 P0001=

SPECI PASM 240725Z AUTO 14006KT 10SM -RA BKN009 BKN015 OVC028 04/03
     A2966 RMK AO2 CIG 007V013 P0001=


NOAA's National Weather Service
Alaska Aviation Weather Unit
6930 Sand Lake Road
Anchorage, AK 99502-1845
Disclaimer
Credits
Glossary
Privacy Policy
About Us
Career Opportunities
Contact AAWU Internet Services Site last modified: April, 17th 2012